createdAt,value
2024-01-11T00:04:07.163Z,14.98
2024-01-11T00:09:09.514Z,14.70
2024-01-11T00:14:12.044Z,13.60
2024-01-11T00:19:14.398Z,14.82
2024-01-11T00:24:17.181Z,15.85
2024-01-11T00:29:19.435Z,14.90
2024-01-11T00:34:22.878Z,13.80
2024-01-11T00:39:25.571Z,14.75
2024-01-11T00:44:27.840Z,14.57
2024-01-11T00:49:30.143Z,14.00
2024-01-11T00:54:32.715Z,15.85
2024-01-11T00:59:34.963Z,15.63
2024-01-11T01:04:40.421Z,15.45
2024-01-11T01:09:42.817Z,16.00
2024-01-11T01:14:45.074Z,15.10
2024-01-11T01:19:47.288Z,17.23
2024-01-11T01:24:49.496Z,15.45
2024-01-11T01:29:51.768Z,14.70
2024-01-11T01:34:54.020Z,15.90
2024-01-11T01:39:56.238Z,16.13
2024-01-11T01:44:58.433Z,18.33
2024-01-11T01:50:00.756Z,15.57
2024-01-11T01:55:05.526Z,16.25
2024-01-11T02:00:13.822Z,16.27
2024-01-11T02:05:17.747Z,15.63
2024-01-11T02:10:20.563Z,16.88
2024-01-11T02:15:23.480Z,16.88
2024-01-11T02:20:25.778Z,18.77
2024-01-11T02:25:28.084Z,15.18
2024-01-11T02:30:30.358Z,15.43
2024-01-11T02:35:32.962Z,17.60
2024-01-11T02:40:36.496Z,20.00
2024-01-11T02:45:39.034Z,19.27
2024-01-11T02:50:41.206Z,20.00
2024-01-11T02:55:43.511Z,20.27
2024-01-11T03:00:45.751Z,18.10
2024-01-11T03:05:48.012Z,19.95
2024-01-11T03:10:50.276Z,18.45
2024-01-11T03:15:52.330Z,18.55
2024-01-11T03:20:54.658Z,19.00
2024-01-11T03:25:56.796Z,18.08
2024-01-11T03:30:58.955Z,18.38
2024-01-11T03:36:01.024Z,19.70
2024-01-11T03:41:03.932Z,20.42
2024-01-11T03:46:06.107Z,17.73
2024-01-11T03:51:08.285Z,17.63
2024-01-11T03:56:11.337Z,20.23
2024-01-11T04:01:13.528Z,18.73
2024-01-11T04:06:23.654Z,19.70
2024-01-11T04:11:29.504Z,19.23
2024-01-11T04:16:31.751Z,20.27
2024-01-11T04:21:33.891Z,18.15
2024-01-11T04:26:36.135Z,18.65
2024-01-11T04:31:38.233Z,16.98
2024-01-11T04:36:40.778Z,16.58
2024-01-11T04:41:43.050Z,19.10
2024-01-11T04:46:45.170Z,15.68
2024-01-11T04:51:47.240Z,18.67
2024-01-11T04:56:49.435Z,16.58
2024-01-11T05:01:51.559Z,18.40
2024-01-11T05:06:53.926Z,18.92
2024-01-11T05:11:56.004Z,16.45
2024-01-11T05:16:58.266Z,18.10
2024-01-11T05:22:00.467Z,16.95
2024-01-11T05:27:02.616Z,17.90
2024-01-11T05:32:05.234Z,17.98
2024-01-11T05:37:07.428Z,17.90
2024-01-11T05:42:09.561Z,19.55
2024-01-11T05:47:11.669Z,19.20
2024-01-11T05:52:13.834Z,21.30
2024-01-11T05:57:16.129Z,19.27
2024-01-11T06:02:18.500Z,18.73
2024-01-11T06:07:20.655Z,17.60
2024-01-11T06:12:22.744Z,20.35
2024-01-11T06:17:25.175Z,19.30
2024-01-11T06:22:27.339Z,19.20
2024-01-11T06:27:32.110Z,20.60
2024-01-11T06:32:34.326Z,16.73
2024-01-11T06:37:36.506Z,19.75
2024-01-11T06:42:38.644Z,18.88
2024-01-11T06:47:40.839Z,18.88
2024-01-11T06:52:43.037Z,16.35
2024-01-11T06:57:49.296Z,19.20
2024-01-11T07:02:54.808Z,19.63
2024-01-11T07:12:59.243Z,17.23
2024-01-11T07:18:01.459Z,17.15
2024-01-11T07:23:03.787Z,15.55
2024-01-11T07:28:06.088Z,15.02
2024-01-11T07:33:09.575Z,16.85
2024-01-11T07:38:12.836Z,16.98
2024-01-11T07:43:15.692Z,14.25
2024-01-11T07:48:17.976Z,15.60
2024-01-11T07:53:20.167Z,16.02
2024-01-11T07:58:22.257Z,14.60
2024-01-11T08:03:24.560Z,14.93
2024-01-11T08:08:27.416Z,13.63
2024-01-11T08:13:32.229Z,13.93
2024-01-11T08:18:34.450Z,15.97
2024-01-11T08:23:36.759Z,15.95
2024-01-11T08:28:38.867Z,16.45
2024-01-11T08:33:41.669Z,12.65
2024-01-11T08:38:44.083Z,14.68
2024-01-11T08:43:46.272Z,14.68
2024-01-11T08:48:48.531Z,15.70
2024-01-11T08:53:50.749Z,12.65
2024-01-11T08:58:53.201Z,14.48
2024-01-11T09:03:55.365Z,14.38
2024-01-11T09:08:57.504Z,12.65
2024-01-11T09:14:00.643Z,15.15
2024-01-11T09:19:02.837Z,13.50
2024-01-11T09:24:05.572Z,14.32
2024-01-11T09:29:07.814Z,13.57
2024-01-11T09:34:10.142Z,12.95
2024-01-11T09:39:14.452Z,13.48
2024-01-11T09:44:16.788Z,14.60
2024-01-11T09:49:22.239Z,13.02
2024-01-11T09:54:26.159Z,13.60
2024-01-11T09:59:28.985Z,13.77
2024-01-11T10:04:31.313Z,12.50
2024-01-11T10:09:33.445Z,13.60
2024-01-11T10:14:35.661Z,11.30
2024-01-11T10:19:38.053Z,13.32
2024-01-11T10:24:40.842Z,14.13
2024-01-11T10:29:45.501Z,12.10
2024-01-11T10:34:47.672Z,14.32
2024-01-11T10:39:51.973Z,12.38
2024-01-11T10:44:59.427Z,13.00
2024-01-11T10:50:05.744Z,13.23
2024-01-11T10:55:08.483Z,12.30
2024-01-11T11:00:13.627Z,11.65
2024-01-11T11:05:18.261Z,8.57
2024-01-11T11:10:21.703Z,7.97
2024-01-11T11:15:25.149Z,10.45
2024-01-11T11:20:29.213Z,11.10
2024-01-11T11:25:32.126Z,11.02
2024-01-11T11:30:37.795Z,10.50
2024-01-11T11:35:40.090Z,11.38
2024-01-11T11:40:46.150Z,11.88
2024-01-11T11:45:49.539Z,11.50
2024-01-11T11:51:12.985Z,10.70
2024-01-11T11:56:18.338Z,10.02
2024-01-11T12:01:20.626Z,6.10
2024-01-11T12:06:28.655Z,9.88
2024-01-11T12:11:32.208Z,10.82
2024-01-11T12:16:34.396Z,12.07
2024-01-11T12:21:36.577Z,12.52
2024-01-11T12:26:39.474Z,12.25
2024-01-11T12:31:41.709Z,14.38
2024-01-11T12:36:44.235Z,9.57
2024-01-11T12:41:46.492Z,10.75
2024-01-11T12:46:53.780Z,13.10
2024-01-11T12:51:55.940Z,11.43
2024-01-11T12:56:58.553Z,10.85
2024-01-11T13:02:01.059Z,10.18
2024-01-11T13:07:03.264Z,9.95
2024-01-11T13:12:06.181Z,12.32
2024-01-11T13:17:09.012Z,10.07
2024-01-11T13:22:11.252Z,11.32
2024-01-11T13:27:13.406Z,10.07
2024-01-11T13:32:15.879Z,12.70
2024-01-11T13:37:18.493Z,11.38
2024-01-11T13:42:20.573Z,9.98
2024-01-11T13:47:22.781Z,9.82
2024-01-11T13:52:24.936Z,8.50
2024-01-11T13:57:26.990Z,9.32
2024-01-11T14:02:29.107Z,11.38
2024-01-11T14:07:31.809Z,9.70
2024-01-11T14:12:34.414Z,8.55
2024-01-11T14:17:36.610Z,9.18
2024-01-11T14:22:38.954Z,10.63
2024-01-11T14:27:42.397Z,9.00
2024-01-11T14:32:45.127Z,8.98
2024-01-11T14:37:48.929Z,9.48
2024-01-11T14:42:51.825Z,8.88
2024-01-11T14:47:54.035Z,8.27
2024-01-11T14:52:56.172Z,9.02
2024-01-11T14:57:59.550Z,9.75
2024-01-11T15:03:03.494Z,10.38
2024-01-11T15:08:06.259Z,10.57
2024-01-11T15:13:08.317Z,11.82
2024-01-11T15:18:10.571Z,10.18
2024-01-11T15:23:12.879Z,11.07
2024-01-11T15:28:14.993Z,12.93
2024-01-11T15:33:17.118Z,12.05
2024-01-11T15:38:19.450Z,11.88
2024-01-11T15:43:21.477Z,11.52
2024-01-11T15:48:23.708Z,12.65
2024-01-11T15:53:25.899Z,10.90
2024-01-11T15:58:27.937Z,11.75
2024-01-11T16:03:30.120Z,10.57
2024-01-11T16:08:32.206Z,11.20
2024-01-11T16:13:34.251Z,12.60
2024-01-11T16:18:38.316Z,10.70
2024-01-11T16:23:40.472Z,11.23
2024-01-11T16:28:42.554Z,10.93
2024-01-11T16:33:45.124Z,9.88
2024-01-11T16:38:47.619Z,10.13
2024-01-11T16:43:49.768Z,10.55
2024-01-11T16:48:52.426Z,8.90
2024-01-11T16:53:54.728Z,10.10
2024-01-11T16:58:56.889Z,8.50
2024-01-11T17:04:00.526Z,10.95
2024-01-11T17:09:04.015Z,9.32
2024-01-11T17:14:06.328Z,10.98
2024-01-11T17:19:08.478Z,12.02
2024-01-11T17:24:10.578Z,13.77
2024-01-11T17:29:15.356Z,15.93
2024-01-11T17:34:17.626Z,14.45
2024-01-11T17:39:19.768Z,15.13
2024-01-11T17:44:23.431Z,15.18
2024-01-11T17:49:25.533Z,13.68
2024-01-11T17:54:27.656Z,13.43
2024-01-11T17:59:30.190Z,13.40
2024-01-11T18:04:32.512Z,13.80
2024-01-11T18:09:37.469Z,14.88
2024-01-11T18:14:40.744Z,13.53
2024-01-11T18:19:43.569Z,16.15
2024-01-11T18:24:48.680Z,15.77
2024-01-11T18:29:50.930Z,14.23
2024-01-11T18:34:53.252Z,14.52
2024-01-11T18:39:55.393Z,14.65
2024-01-11T18:44:59.127Z,14.45
2024-01-11T18:50:02.968Z,12.13
2024-01-11T18:55:12.973Z,13.43
2024-01-11T19:00:20.725Z,12.65
2024-01-11T19:05:24.257Z,14.48
2024-01-11T19:10:27.621Z,15.20
2024-01-11T19:15:30.054Z,11.82
2024-01-11T19:20:32.859Z,14.43
2024-01-11T19:25:35.293Z,12.18
2024-01-11T19:30:38.659Z,12.07
2024-01-11T19:35:41.512Z,14.15
2024-01-11T19:40:43.637Z,15.85
2024-01-11T19:45:47.568Z,15.73
2024-01-11T19:50:49.736Z,15.63
2024-01-11T19:55:51.804Z,13.98
2024-01-11T20:00:53.969Z,16.23
2024-01-11T20:05:56.386Z,13.38
2024-01-11T20:10:58.571Z,15.32
2024-01-11T20:16:01.132Z,13.60
2024-01-11T20:21:03.720Z,11.05
2024-01-11T20:26:06.220Z,12.48
2024-01-11T20:31:10.535Z,14.85
2024-01-11T20:36:12.682Z,12.02
2024-01-11T20:41:15.930Z,10.18
2024-01-11T20:46:24.373Z,9.70
2024-01-11T20:51:27.690Z,9.13
2024-01-11T20:56:31.682Z,9.20
2024-01-11T21:01:33.906Z,9.63
2024-01-11T21:06:36.392Z,7.93
2024-01-11T21:11:38.677Z,7.28
2024-01-11T21:16:40.874Z,8.93
2024-01-11T21:21:45.063Z,8.27
2024-01-11T21:26:47.447Z,7.18
2024-01-11T21:31:49.682Z,6.97
2024-01-11T21:36:51.772Z,7.70
2024-01-11T21:41:53.894Z,8.40
2024-01-11T21:46:55.976Z,7.07
2024-01-11T21:51:58.092Z,9.57
2024-01-11T21:57:00.166Z,8.48
2024-01-11T22:02:02.271Z,8.23
2024-01-11T22:07:04.554Z,9.35
2024-01-11T22:12:07.201Z,8.00
2024-01-11T22:17:09.655Z,7.40
2024-01-11T22:22:11.784Z,4.75
2024-01-11T22:27:13.873Z,6.40
2024-01-11T22:32:16.100Z,4.72
2024-01-11T22:37:18.868Z,5.38
2024-01-11T22:42:20.968Z,4.63
2024-01-11T22:47:23.855Z,4.78
2024-01-11T22:52:26.009Z,4.45
2024-01-11T22:57:28.121Z,5.85
2024-01-11T23:02:30.159Z,3.58
2024-01-11T23:07:32.379Z,5.60
2024-01-11T23:12:34.801Z,3.80
2024-01-11T23:17:37.048Z,4.10
2024-01-11T23:22:39.620Z,4.50
2024-01-11T23:27:41.828Z,6.20
2024-01-11T23:32:44.049Z,3.80
2024-01-11T23:37:48.155Z,2.75
2024-01-11T23:42:50.451Z,2.60
2024-01-11T23:47:52.811Z,3.38
2024-01-11T23:52:55.027Z,3.88
2024-01-11T23:57:57.094Z,2.83
